Terminal Aerodrome Forecast
Issued by NWS Mobile, AL

Home | Current Version | Previous Version | Text Only | Print | Product List | Glossary On
Versions: 1 2 3 4 5 6 7 8 9 10 11 12 13 14 15 16 17 18 19 20 21 22 23 24 25 26 27 28 29
000
FTUS44 KMOB 302340
TAFMOB
TAF
KMOB 302340Z 3100/3124 21012KT P6SM FEW040 FEW060
     FM310300 22006KT P6SM SCT050 SCT250
     FM311000 24002KT 4SM BR SCT007 SCT250
     FM311500 24012G18KT P6SM SCT040 BKN250=

USA.gov is the U.S. government's official web portal to all federal, state and local government web resources and services.